Time;durP1;ratioP1;P1;durP2;ratioP2;P2;SDS_P1;SDS_P2;PMS_P1;PMS_P2;Temp;Humidity;BMP_temperature;BMP_pressure;BME280_temperature;BME280_humidity;BME280_pressure;Samples;Min_cycle;Max_cycle;Signal;HPM_P1;HPM_P2
2022/03/19 00:00:58;;;;;;;14.82;6.10;;;;;;;5.94;100.00;103169.03;5072046;28;20031;-60
2022/03/19 00:03:24;;;;;;;14.10;6.57;;;;;;;5.64;100.00;103119.00;5075068;28;20024;-60
2022/03/19 00:05:50;;;;;;;10.25;6.30;;;;;;;5.95;100.00;103170.75;5072548;28;20073;-60
2022/03/19 00:08:16;;;;;;;11.82;6.03;;;;;;;5.86;100.00;103151.50;5074194;28;20028;-60
2022/03/19 00:10:42;;;;;;;9.55;5.90;;;;;;;5.47;100.00;103091.81;5073838;28;20028;-59
2022/03/19 00:13:07;;;;;;;13.10;5.72;;;;;;;6.01;100.00;103176.06;5074892;28;20496;-59
2022/03/19 00:15:34;;;;;;;11.25;6.93;;;;;;;6.04;100.00;103172.63;5075255;28;20028;-60
2022/03/19 00:17:59;;;;;;;10.10;6.75;;;;;;;6.07;100.00;103185.72;5074979;28;20025;-60
2022/03/19 00:20:24;;;;;;;12.38;6.40;;;;;;;5.95;100.00;103169.88;5074978;28;20101;-61
2022/03/19 00:22:50;;;;;;;9.95;5.75;;;;;;;5.99;100.00;103183.00;5074933;28;20496;-61
2022/03/19 00:25:16;;;;;;;11.02;6.90;;;;;;;5.82;100.00;103157.47;5074812;28;20044;-60
2022/03/19 00:27:41;;;;;;;18.45;6.60;;;;;;;5.96;100.00;103177.72;5072393;28;20439;-60
2022/03/19 00:30:08;;;;;;;10.60;5.72;;;;;;;5.90;100.00;103177.66;5074698;28;20021;-60
2022/03/19 00:32:34;;;;;;;8.15;5.72;;;;;;;5.89;100.00;103178.50;5074674;28;20108;-60
2022/03/19 00:35:00;;;;;;;9.73;5.75;;;;;;;5.78;100.00;103167.00;5074236;28;20032;-60
2022/03/19 00:37:26;;;;;;;11.80;6.25;;;;;;;5.72;100.00;103151.25;5074635;28;20028;-60
2022/03/19 00:39:51;;;;;;;9.45;6.15;;;;;;;5.74;100.00;103159.13;5074430;28;20024;-60
2022/03/19 00:42:17;;;;;;;10.65;6.32;;;;;;;5.77;100.00;103170.47;5074447;28;20067;-61
2022/03/19 00:44:43;;;;;;;16.88;6.35;;;;;;;5.76;100.00;103173.06;5074675;28;20394;-60
2022/03/19 00:47:08;;;;;;;8.57;5.38;;;;;;;5.78;100.00;103167.00;5074302;28;20020;-61
2022/03/19 00:49:34;;;;;;;11.55;6.55;;;;;;;5.81;100.00;103172.28;5074327;28;20241;-60
2022/03/19 00:51:59;;;;;;;6.95;5.63;;;;;;;5.59;100.00;103142.41;5074615;28;20032;-61
2022/03/19 00:54:25;;;;;;;9.55;6.30;;;;;;;5.70;100.00;103167.75;5071925;28;20692;-61
2022/03/19 00:56:50;;;;;;;13.15;6.45;;;;;;;5.69;100.00;103169.47;5074140;28;20029;-61
2022/03/19 00:59:15;;;;;;;10.13;6.65;;;;;;;5.67;100.00;103168.59;5073778;28;20517;-61
2022/03/19 01:01:41;;;;;;;10.50;6.80;;;;;;;5.58;100.00;103153.69;5073747;28;20031;-60
2022/03/19 01:04:06;;;;;;;8.57;5.57;;;;;;;5.59;100.00;103165.00;5072909;28;20025;-61
2022/03/19 01:06:32;;;;;;;10.90;6.40;;;;;;;5.51;100.00;103163.97;5061924;28;20419;-61
2022/03/19 01:08:57;;;;;;;10.10;6.00;;;;;;;5.40;100.00;103165.56;5073843;28;20039;-61
2022/03/19 01:11:23;;;;;;;10.82;6.47;;;;;;;5.41;100.00;103162.09;5073781;28;20028;-61
2022/03/19 01:13:52;;;;;;;8.80;6.57;;;;;;;5.40;100.00;103165.56;5073953;28;20020;-61
2022/03/19 01:16:19;;;;;;;8.18;5.72;;;;;;;5.33;100.00;103162.00;5071117;28;20025;-61
2022/03/19 01:18:47;;;;;;;13.50;6.82;;;;;;;5.23;100.00;103149.66;5073858;28;20129;-60
2022/03/19 01:21:14;;;;;;;12.73;6.82;;;;;;;5.20;100.00;103148.75;5068631;28;20028;-60
2022/03/19 01:23:39;;;;;;;11.57;6.20;;;;;;;5.17;100.00;103139.16;5072475;28;20025;-61
2022/03/19 01:26:04;;;;;;;14.13;6.88;;;;;;;5.26;100.00;103141.00;5073359;28;20055;-60
2022/03/19 01:28:30;;;;;;;10.55;6.97;;;;;;;5.18;100.00;103129.56;5073654;28;20028;-60
2022/03/19 01:30:55;;;;;;;12.07;7.10;;;;;;;5.22;100.00;103136.59;5073650;28;20052;-60
2022/03/19 01:33:20;;;;;;;8.02;6.15;;;;;;;5.23;100.00;103143.56;5073661;28;20082;-60
2022/03/19 01:35:46;;;;;;;9.73;6.70;;;;;;;5.14;100.00;103129.53;5071839;28;20095;-60
2022/03/19 01:38:11;;;;;;;16.13;7.88;;;;;;;5.14;100.00;103136.47;5073390;28;20446;-60
2022/03/19 01:40:36;;;;;;;9.38;6.95;;;;;;;4.81;100.00;103087.31;5073783;28;20028;-60
2022/03/19 01:43:02;;;;;;;12.93;6.78;;;;;;;5.14;100.00;103131.25;5072811;28;20024;-60
2022/03/19 01:45:27;;;;;;;13.52;8.10;;;;;;;5.14;100.00;103139.97;5064254;28;20036;-60
2022/03/19 01:47:54;;;;;;;16.83;8.63;;;;;;;4.92;100.00;103111.81;5072814;28;20090;-60
2022/03/19 01:50:21;;;;;;;11.60;7.07;;;;;;;5.10;100.00;103138.16;5072889;28;20157;-60
2022/03/19 01:52:47;;;;;;;13.20;7.75;;;;;;;5.05;100.00;103121.56;5072498;28;20536;-60
2022/03/19 01:55:13;;;;;;;14.95;7.43;;;;;;;4.86;100.00;103090.88;5072162;28;20032;-61
2022/03/19 01:57:42;;;;;;;10.90;7.18;;;;;;;5.01;100.00;103117.16;5071689;28;20035;-60
2022/03/19 02:00:11;;;;;;;10.38;7.40;;;;;;;4.97;100.00;103124.88;5073034;28;20478;-60
2022/03/19 02:02:36;;;;;;;15.68;8.60;;;;;;;4.97;100.00;103125.78;5073071;28;20371;-61
2022/03/19 02:05:03;;;;;;;14.73;7.95;;;;;;;4.93;100.00;103117.91;5072986;28;20039;-60
2022/03/19 02:07:29;;;;;;;13.75;7.93;;;;;;;4.93;100.00;103118.78;5072962;28;20072;-60
2022/03/19 02:09:57;;;;;;;11.05;7.65;;;;;;;4.82;100.00;103104.69;5072987;28;20036;-60
2022/03/19 02:12:23;;;;;;;11.07;7.97;;;;;;;4.84;100.00;103118.59;5072974;28;20056;-60
2022/03/19 02:14:48;;;;;;;17.75;8.65;;;;;;;4.66;100.00;103097.47;5072891;28;20134;-60
2022/03/19 02:17:14;;;;;;;13.02;8.13;;;;;;;4.74;100.00;103111.47;5066563;28;20017;-60
2022/03/19 02:19:58;;;;;;;15.32;7.47;;;;;;;4.64;100.00;103093.94;5052607;28;20033;-61
2022/03/19 02:22:26;;;;;;;15.40;8.05;;;;;;;4.58;100.00;103091.25;5052979;28;20079;-60
2022/03/19 02:27:36;;;;;;;15.00;8.02;;;;;;;4.63;100.00;103092.19;5046522;28;20102;-60
2022/03/19 02:30:02;;;;;;;14.95;8.77;;;;;;;4.54;100.00;103089.44;5052284;28;20037;-60
2022/03/19 02:32:28;;;;;;;12.13;8.02;;;;;;;4.58;100.00;103099.06;5052630;28;20029;-60
2022/03/19 02:34:54;;;;;;;16.38;8.27;;;;;;;4.52;100.00;103080.72;5052689;28;20082;-60
2022/03/19 02:37:19;;;;;;;13.30;8.82;;;;;;;4.59;100.00;103106.03;5052494;28;20475;-60
2022/03/19 02:39:45;;;;;;;15.60;8.48;;;;;;;4.52;100.00;103091.13;5052524;28;20103;-60
2022/03/19 02:42:12;;;;;;;13.38;8.18;;;;;;;4.22;100.00;103036.81;5052724;28;20044;-61
2022/03/19 02:44:37;;;;;;;21.02;9.18;;;;;;;4.61;100.00;103094.78;5066955;28;20025;-60
2022/03/19 02:47:05;;;;;;;11.55;8.02;;;;;;;4.05;100.00;102991.41;5045588;28;20498;-61
2022/03/19 02:49:30;;;;;;;13.95;8.35;;;;;;;4.64;100.00;103092.22;5054715;28;20133;-60
2022/03/19 02:51:56;;;;;;;12.18;8.50;;;;;;;4.57;100.00;103084.28;5056959;28;20514;-60
2022/03/19 02:54:26;;;;;;;17.52;8.23;;;;;;;4.41;100.00;103064.03;5056224;28;20028;-60
2022/03/19 02:56:53;;;;;;;20.77;10.32;;;;;;;4.45;100.00;103077.13;5056591;28;20071;-60
2022/03/19 02:59:21;;;;;;;15.38;9.50;;;;;;;4.56;100.00;103086.00;5056254;28;20382;-61
2022/03/19 03:01:48;;;;;;;16.85;9.50;;;;;;;4.51;100.00;103082.44;5055543;28;20029;-60
2022/03/19 03:04:14;;;;;;;14.93;9.25;;;;;;;4.48;100.00;103081.50;5056515;28;20108;-60
2022/03/19 03:06:41;;;;;;;15.30;9.38;;;;;;;4.45;100.00;103078.84;5055811;28;20108;-60
2022/03/19 03:09:08;;;;;;;14.95;8.98;;;;;;;3.99;100.00;103005.16;5056771;28;20033;-61
2022/03/19 03:11:33;;;;;;;15.43;9.68;;;;;;;4.40;100.00;103073.56;5055897;28;20112;-61
2022/03/19 03:13:59;;;;;;;13.07;8.85;;;;;;;3.86;100.00;102990.16;5056215;28;20021;-61
2022/03/19 03:16:26;;;;;;;13.93;9.10;;;;;;;4.27;100.00;103058.56;5055143;28;20017;-61
2022/03/19 03:18:52;;;;;;;11.05;9.50;;;;;;;4.23;100.00;103063.69;5070936;28;20574;-60
2022/03/19 03:21:18;;;;;;;13.82;9.68;;;;;;;4.22;100.00;103056.75;5056116;28;20112;-60
2022/03/19 03:23:43;;;;;;;13.77;9.45;;;;;;;4.24;100.00;103070.66;5055869;28;20029;-60
2022/03/19 03:26:08;;;;;;;18.10;10.45;;;;;;;4.20;100.00;103061.91;5055649;28;20041;-61
2022/03/19 03:28:34;;;;;;;13.85;10.07;;;;;;;4.19;100.00;103067.09;5055386;28;20118;-60
2022/03/19 03:30:59;;;;;;;15.50;10.75;;;;;;;4.16;100.00;103067.03;5055387;28;20360;-60
2022/03/19 03:33:25;;;;;;;16.30;10.80;;;;;;;4.06;100.00;103060.75;5056115;28;20037;-60
2022/03/19 03:35:50;;;;;;;20.90;10.05;;;;;;;3.99;100.00;103051.97;5055798;28;20463;-60
2022/03/19 03:38:15;;;;;;;17.58;11.38;;;;;;;4.01;100.00;103063.28;5055605;28;20078;-60
2022/03/19 03:40:41;;;;;;;20.90;10.55;;;;;;;4.00;100.00;103066.72;5055493;28;20387;-60
2022/03/19 03:43:08;;;;;;;18.23;10.48;;;;;;;4.00;100.00;103065.84;5055776;28;20116;-60
2022/03/19 03:45:33;;;;;;;13.73;10.73;;;;;;;3.92;100.00;103057.88;5069408;28;20060;-60
2022/03/19 03:47:59;;;;;;;16.38;10.52;;;;;;;3.99;100.00;103059.75;5055019;28;20061;-60
2022/03/19 03:50:24;;;;;;;13.52;10.50;;;;;;;3.81;100.00;103033.41;5048222;28;20526;-61
2022/03/19 03:52:50;;;;;;;17.50;9.75;;;;;;;3.68;100.00;103015.81;5054300;28;20033;-60
2022/03/19 03:55:15;;;;;;;19.95;10.23;;;;;;;3.67;100.00;103024.44;5052015;28;20049;-60
2022/03/19 03:57:41;;;;;;;15.77;10.35;;;;;;;3.91;100.00;103071.75;5055010;28;20945;-60
2022/03/19 04:00:08;;;;;;;16.40;10.73;;;;;;;3.88;100.00;103063.91;5070469;28;20524;-60
2022/03/19 04:02:34;;;;;;;17.13;10.32;;;;;;;3.73;100.00;103037.56;5055749;28;20063;-61
2022/03/19 04:04:59;;;;;;;15.18;9.48;;;;;;;3.84;100.00;103062.06;5055143;28;20037;-60
2022/03/19 04:07:27;;;;;;;14.15;9.40;;;;;;;3.87;100.00;103064.75;5054680;28;20028;-60
2022/03/19 04:09:52;;;;;;;14.55;10.27;;;;;;;3.77;100.00;103061.91;5055154;28;20025;-61
2022/03/19 04:12:18;;;;;;;19.15;10.30;;;;;;;3.67;100.00;103059.97;5055118;28;20032;-60
2022/03/19 04:14:44;;;;;;;14.35;10.07;;;;;;;3.59;100.00;103050.28;5055431;28;20467;-60
2022/03/19 04:17:09;;;;;;;14.55;10.18;;;;;;;3.60;100.00;103054.66;5051198;28;20075;-60
2022/03/19 04:19:35;;;;;;;15.13;10.05;;;;;;;3.59;100.00;103052.00;5054541;28;20115;-60
2022/03/19 04:22:00;;;;;;;19.70;10.68;;;;;;;3.62;100.00;103056.41;5055203;28;20033;-60
2022/03/19 04:24:25;;;;;;;15.48;10.35;;;;;;;3.55;100.00;103044.97;5047807;28;20128;-60
2022/03/19 04:26:51;;;;;;;19.60;11.98;;;;;;;3.28;100.00;103016.69;5054241;28;20029;-60
2022/03/19 04:29:16;;;;;;;15.73;10.23;;;;;;;3.52;100.00;103055.31;5054415;28;20124;-60
2022/03/19 04:31:42;;;;;;;18.73;10.85;;;;;;;3.64;100.00;103065.09;5054710;28;20399;-60
2022/03/19 04:34:07;;;;;;;14.05;10.07;;;;;;;3.60;100.00;103074.56;5054437;28;20124;-60
2022/03/19 04:36:35;;;;;;;20.45;11.40;;;;;;;3.62;100.00;103057.25;5054557;28;20025;-60
2022/03/19 04:39:03;;;;;;;20.23;10.48;;;;;;;3.60;100.00;103054.66;5069307;28;20033;-61
2022/03/19 04:41:29;;;;;;;20.48;11.05;;;;;;;3.55;100.00;103052.78;5053826;28;20095;-61
2022/03/19 04:43:54;;;;;;;17.90;11.18;;;;;;;3.47;100.00;103039.63;5054768;28;20455;-60
2022/03/19 04:46:20;;;;;;;26.30;10.60;;;;;;;3.56;100.00;103062.34;5054540;28;20479;-61
2022/03/19 04:48:46;;;;;;;17.60;11.20;;;;;;;3.52;100.00;103056.19;5054357;28;20039;-61
2022/03/19 04:51:17;;;;;;;14.35;11.15;;;;;;;3.45;100.00;103054.31;5054130;28;20032;-60
2022/03/19 04:53:43;;;;;;;16.90;12.30;;;;;;;3.38;100.00;103043.78;5053925;28;20451;-61
2022/03/19 04:56:09;;;;;;;21.17;12.48;;;;;;;3.34;100.00;103042.81;5053039;28;20041;-60
2022/03/19 04:58:34;;;;;;;19.33;11.90;;;;;;;3.35;100.00;103041.06;5054347;28;20039;-60
2022/03/19 05:01:00;;;;;;;19.65;11.75;;;;;;;3.31;100.00;103045.31;5053008;28;20111;-60
2022/03/19 05:03:26;;;;;;;16.98;12.23;;;;;;;3.27;100.00;103042.66;5051967;28;20090;-60
2022/03/19 05:05:52;;;;;;;18.35;12.57;;;;;;;3.20;100.00;103026.03;5053992;28;20029;-60
2022/03/19 05:08:17;;;;;;;19.38;11.95;;;;;;;3.24;100.00;103027.00;5053531;28;20035;-60
2022/03/19 05:13:28;;;;;;;16.30;11.15;;;;;;;3.14;100.00;103020.72;5054083;28;20052;-60
2022/03/19 05:15:54;;;;;;;15.88;10.95;;;;;;;3.20;100.00;103031.25;5053438;28;20131;-60
2022/03/19 05:18:19;;;;;;;15.90;11.48;;;;;;;3.17;100.00;103036.38;5053533;28;20040;-60
2022/03/19 05:20:45;;;;;;;15.77;11.60;;;;;;;3.09;100.00;103043.97;5052187;28;20036;-60
2022/03/19 05:23:11;;;;;;;18.65;12.15;;;;;;;3.00;100.00;103037.69;5053773;28;20051;-60
2022/03/19 05:25:36;;;;;;;27.33;13.18;;;;;;;2.98;100.00;103034.16;5053773;28;20467;-61
2022/03/19 05:28:02;;;;;;;16.38;11.55;;;;;;;3.04;100.00;103040.38;5053425;28;20558;-60
2022/03/19 05:30:28;;;;;;;19.55;13.27;;;;;;;3.06;100.00;103051.72;5053618;28;20040;-60
2022/03/19 05:32:53;;;;;;;18.55;12.73;;;;;;;3.04;100.00;103044.72;5068988;28;20033;-60
2022/03/19 05:35:21;;;;;;;18.17;13.23;;;;;;;3.02;100.00;103042.09;5052288;28;20025;-60
2022/03/19 05:37:47;;;;;;;20.30;11.48;;;;;;;3.02;100.00;103057.66;5053326;28;20082;-60
2022/03/19 05:40:12;;;;;;;21.52;12.77;;;;;;;2.71;100.00;103016.22;5051545;28;20509;-61
2022/03/19 05:42:38;;;;;;;19.05;13.52;;;;;;;2.92;100.00;103045.31;5052613;28;20057;-60
2022/03/19 05:45:04;;;;;;;20.88;14.00;;;;;;;2.99;100.00;103049.81;5053210;28;20028;-60
2022/03/19 05:47:29;;;;;;;23.05;13.73;;;;;;;3.00;100.00;103048.97;5053249;28;20111;-61
2022/03/19 05:49:55;;;;;;;17.70;12.73;;;;;;;3.04;100.00;103050.78;5052910;28;20387;-61
2022/03/19 05:52:20;;;;;;;19.50;13.02;;;;;;;2.84;100.00;103015.69;5053657;28;20033;-61
2022/03/19 05:54:45;;;;;;;22.10;14.15;;;;;;;3.06;100.00;103054.31;5044384;28;20455;-60
2022/03/19 05:57:11;;;;;;;29.70;13.30;;;;;;;3.02;100.00;103055.06;5053130;28;20028;-60
2022/03/19 05:59:36;;;;;;;16.92;12.50;;;;;;;3.07;100.00;103061.25;5066600;28;20043;-60
2022/03/19 06:02:02;;;;;;;24.90;13.10;;;;;;;2.67;100.00;103001.41;5072745;28;20039;-60
2022/03/19 06:04:28;;;;;;;24.00;12.50;;;;;;;3.00;100.00;103054.16;5087790;28;20024;-60
2022/03/19 06:06:53;;;;;;;20.13;13.77;;;;;;;2.96;100.00;103052.34;5072685;28;20027;-60
2022/03/19 06:09:19;;;;;;;17.08;12.07;;;;;;;3.02;100.00;103051.59;5070349;28;20463;-61
2022/03/19 06:11:45;;;;;;;17.75;12.88;;;;;;;3.04;100.00;103066.34;5050958;28;20024;-60
2022/03/19 06:14:11;;;;;;;17.70;12.95;;;;;;;3.07;100.00;103066.47;5063448;28;20486;-61
2022/03/19 06:16:36;;;;;;;16.10;11.85;;;;;;;3.06;100.00;103048.22;5072198;28;20027;-60
2022/03/19 06:19:02;;;;;;;16.60;12.25;;;;;;;3.16;100.00;103064.91;5071466;28;20039;-60
2022/03/19 06:21:27;;;;;;;20.55;12.32;;;;;;;2.99;100.00;103034.22;5088099;28;20020;-61
2022/03/19 06:23:53;;;;;;;24.40;14.10;;;;;;;3.27;100.00;103072.09;5072826;28;20455;-60
2022/03/19 06:26:20;;;;;;;17.33;12.20;;;;;;;3.33;100.00;103067.03;5087967;28;20066;-61
2022/03/19 06:28:45;;;;;;;19.63;12.77;;;;;;;3.24;100.00;103051.25;5059947;28;20044;-61
2022/03/19 06:31:11;;;;;;;18.52;11.73;;;;;;;3.42;100.00;103059.44;5035252;28;20033;-60
2022/03/19 06:33:40;;;;;;;21.42;12.68;;;;;;;3.51;100.00;103066.56;5028139;28;20029;-60
2022/03/19 06:38:49;;;;;;;13.50;10.80;;;;;;;3.62;100.00;103059.00;5026380;28;20892;-61
2022/03/19 06:41:15;;;;;;;16.58;11.90;;;;;;;3.68;100.00;103061.72;5028425;28;20024;-61
2022/03/19 06:43:40;;;;;;;20.23;12.35;;;;;;;3.66;100.00;103048.69;5027449;28;20875;-61
2022/03/19 06:46:06;;;;;;;13.90;10.65;;;;;;;3.79;100.00;103071.50;5026648;28;20024;-61
2022/03/19 06:48:31;;;;;;;15.20;11.02;;;;;;;3.86;100.00;103068.16;5027154;28;20896;-61
2022/03/19 06:50:57;;;;;;;15.80;11.23;;;;;;;3.95;100.00;103067.50;5026593;28;20028;-60
2022/03/19 06:53:24;;;;;;;16.45;11.35;;;;;;;3.99;100.00;103070.16;5026728;28;20024;-61
2022/03/19 06:55:50;;;;;;;13.73;10.90;;;;;;;4.07;100.00;103066.00;5026918;28;20031;-60
2022/03/19 06:58:16;;;;;;;13.45;10.07;;;;;;;4.10;100.00;103053.06;5026921;28;20028;-61
2022/03/19 07:00:42;;;;;;;14.15;10.10;;;;;;;4.23;100.00;103072.38;5025551;28;20025;-61
2022/03/19 07:03:07;;;;;;;21.50;10.63;;;;;;;4.28;100.00;103062.94;5041543;28;20028;-60
2022/03/19 07:05:33;;;;;;;12.32;9.65;;;;;;;4.34;100.00;103056.97;5025322;28;20793;-61
2022/03/19 07:08:00;;;;;;;14.43;10.15;;;;;;;4.42;100.00;103064.06;5028660;28;20537;-61
2022/03/19 07:10:25;;;;;;;17.08;11.40;;;;;;;3.89;100.00;102961.59;5027290;28;20029;-61
2022/03/19 07:12:52;;;;;;;22.40;10.68;;;;;;;4.55;100.00;103065.16;5025585;28;20064;-60
2022/03/19 07:15:20;;;;;;;15.57;10.10;;;;;;;4.64;100.00;103065.31;5025486;28;20102;-60
2022/03/19 07:17:46;;;;;;;15.52;10.93;;;;;;;4.71;100.00;103064.56;5026539;28;20083;-61
2022/03/19 07:20:13;;;;;;;16.15;9.63;;;;;;;4.69;100.00;103050.66;5028274;28;20167;-61
2022/03/19 07:22:58;;;;;;;13.27;9.00;;;;;;;4.88;100.00;103060.50;5026243;28;20590;-61
2022/03/19 07:25:25;;;;;;;13.38;8.98;;;;;;;4.96;100.00;103053.69;5026045;28;20037;-61
2022/03/19 07:27:52;;;;;;;15.70;9.60;;;;;;;5.11;100.00;103061.72;5024626;28;20033;-61
2022/03/19 07:30:18;;;;;;;12.60;9.10;;;;;;;5.23;100.00;103057.56;5025511;28;20052;-61
2022/03/19 07:32:43;;;;;;;21.17;9.05;;;;;;;5.30;100.00;103054.19;5025251;28;20792;-61
2022/03/19 07:35:09;;;;;;;13.25;9.00;;;;;;;5.30;100.00;103033.34;5026712;28;20024;-60
2022/03/19 07:37:35;;;;;;;14.50;8.77;;;;;;;5.45;100.00;103046.56;5045251;28;20025;-61
2022/03/19 07:40:01;;;;;;;13.88;8.77;;;;;;;5.48;100.00;103050.09;5026995;28;20040;-61
2022/03/19 07:42:27;;;;;;;11.77;9.32;;;;;;;5.55;100.00;103043.22;5026734;28;20040;-60
2022/03/19 07:44:52;;;;;;;14.10;7.57;;;;;;;5.65;100.00;103047.69;5029183;28;20132;-61
2022/03/19 07:47:19;;;;;;;10.07;7.57;;;;;;;5.72;100.00;103046.94;5027536;28;20079;-61
2022/03/19 07:49:44;;;;;;;15.52;8.57;;;;;;;5.35;100.00;102966.50;5028736;28;20131;-60
2022/03/19 07:52:10;;;;;;;14.02;7.45;;;;;;;5.75;100.00;103020.88;5029103;28;20033;-60
2022/03/19 07:54:36;;;;;;;12.65;7.38;;;;;;;6.04;100.00;103043.00;5029628;28;20911;-60
2022/03/19 07:57:06;;;;;;;13.60;8.27;;;;;;;6.09;100.00;103033.47;5028271;28;20025;-60
2022/03/19 07:59:32;;;;;;;13.05;7.88;;;;;;;6.24;100.00;103043.22;5027793;28;20298;-60
2022/03/19 08:01:58;;;;;;;12.20;6.60;;;;;;;6.36;100.00;103037.22;5027938;28;20477;-60
2022/03/19 08:04:23;;;;;;;10.27;7.43;;;;;;;6.45;100.00;103035.59;5029312;28;20028;-60
2022/03/19 08:06:53;;;;;;;10.68;6.53;;;;;;;6.41;100.00;103014.66;5027495;28;20155;-60
2022/03/19 08:09:19;;;;;;;14.20;7.30;;;;;;;6.21;100.00;102974.44;5027576;28;20159;-60
2022/03/19 08:11:44;;;;;;;10.02;6.22;;;;;;;6.67;100.00;103034.91;5027623;28;20024;-60
2022/03/19 08:14:09;;;;;;;7.20;5.68;;;;;;;6.78;100.00;103041.97;5030366;28;20927;-61
2022/03/19 08:16:35;;;;;;;8.63;6.03;;;;;;;6.86;100.00;103046.38;5028058;28;20087;-61
2022/03/19 08:19:01;;;;;;;14.35;6.82;;;;;;;6.97;100.00;103043.84;5027606;28;20089;-60
2022/03/19 08:21:26;;;;;;;9.50;5.88;;;;;;;6.76;100.00;102996.66;5028021;28;20025;-61
2022/03/19 08:23:52;;;;;;;15.65;6.90;;;;;;;7.11;100.00;103037.84;5029615;28;20028;-61
2022/03/19 08:26:18;;;;;;;15.65;6.72;;;;;;;7.24;100.00;103032.69;5028718;28;20041;-61
2022/03/19 08:28:43;;;;;;;9.38;5.95;;;;;;;7.15;100.00;102991.69;5027640;28;20828;-60
2022/03/19 08:31:08;;;;;;;10.60;6.10;;;;;;;7.49;100.00;103039.81;5026749;28;20063;-60
2022/03/19 08:33:34;;;;;;;9.30;5.32;;;;;;;7.44;100.00;103020.59;5027895;28;20983;-60
2022/03/19 08:35:59;;;;;;;8.05;5.22;;;;;;;7.68;100.00;103037.28;5028613;28;20024;-61
2022/03/19 08:41:08;;;;;;;12.73;5.78;;;;;;;7.83;100.00;103033.88;5027666;28;20934;-60
2022/03/19 08:43:34;;;;;;;11.75;5.45;;;;;;;7.86;100.00;103031.25;5028081;28;20040;-61
2022/03/19 08:45:59;;;;;;;8.90;4.70;;;;;;;8.00;100.00;103037.41;5042630;28;20032;-60
2022/03/19 08:48:25;;;;;;;6.57;3.97;;;;;;;8.07;100.00;103040.91;5029988;28;20093;-61
2022/03/19 08:50:51;;;;;;;6.63;4.90;;;;;;;8.18;100.00;103034.81;5027726;28;20028;-61
2022/03/19 08:53:17;;;;;;;7.10;4.80;;;;;;;8.19;100.00;103030.47;5026072;28;20035;-60
2022/03/19 08:55:43;;;;;;;9.50;5.20;;;;;;;8.31;100.00;103029.66;5027351;28;20028;-60
2022/03/19 08:58:09;;;;;;;6.28;4.32;;;;;;;8.42;100.00;103026.16;5027597;28;21047;-61
2022/03/19 09:00:35;;;;;;;10.85;4.63;;;;;;;8.38;100.00;103011.31;5027761;28;20030;-60
2022/03/19 09:03:01;;;;;;;5.97;3.80;;;;;;;8.47;100.00;103020.94;5028420;28;20032;-60
2022/03/19 09:05:28;;;;;;;10.52;4.85;;;;;;;8.53;100.00;103019.19;5027267;28;20109;-60
2022/03/19 09:07:53;;;;;;;8.98;4.93;;;;;;;8.51;100.00;103006.97;5027636;28;20020;-61
2022/03/19 09:10:19;;;;;;;11.50;5.20;;;;;;;8.63;100.00;103022.69;5028186;28;20173;-61
2022/03/19 09:12:44;;;;;;;6.45;4.32;;;;;;;8.69;100.00;103012.19;5029380;28;20885;-60
2022/03/19 09:15:11;;;;;;;9.30;5.07;;;;;;;8.72;100.00;103020.03;5029020;28;20082;-60
2022/03/19 09:17:36;;;;;;;11.32;4.32;;;;;;;8.75;100.00;103017.47;5027207;28;20456;-60
2022/03/19 09:20:03;;;;;;;7.85;5.13;;;;;;;8.89;100.00;103018.28;5042659;28;20028;-60
2022/03/19 09:22:32;;;;;;;7.78;4.80;;;;;;;9.02;100.00;103012.16;5027319;28;20031;-60
2022/03/19 09:24:57;;;;;;;10.05;4.95;;;;;;;9.08;100.00;103004.28;5028056;28;20922;-60
2022/03/19 09:27:23;;;;;;;18.85;6.05;;;;;;;9.09;100.00;103003.41;5032333;28;20118;-60
2022/03/19 09:29:48;;;;;;;7.10;4.28;;;;;;;9.15;100.00;103006.03;5043436;28;20095;-60
2022/03/19 09:32:16;;;;;;;5.75;3.97;;;;;;;9.02;100.00;102975.44;5033431;28;20120;-60
2022/03/19 09:34:43;;;;;;;11.05;5.38;;;;;;;9.17;100.00;103001.63;5028173;28;20336;-60
2022/03/19 09:37:08;;;;;;;8.82;4.78;;;;;;;9.27;100.00;103012.09;5025812;28;20016;-60
2022/03/19 09:39:34;;;;;;;8.02;4.72;;;;;;;9.07;100.00;102971.06;5025182;28;20197;-61
2022/03/19 09:42:00;;;;;;;8.45;4.80;;;;;;;9.35;100.00;103007.72;5026803;28;20105;-60
2022/03/19 09:44:26;;;;;;;13.27;5.47;;;;;;;9.33;100.00;102996.38;5026353;28;20132;-60
2022/03/19 09:46:52;;;;;;;10.82;4.95;;;;;;;9.23;100.00;102964.88;5026351;28;20021;-60
2022/03/19 09:49:19;;;;;;;8.02;4.95;;;;;;;9.47;100.00;102974.41;5026273;28;20085;-60
2022/03/19 09:51:54;;;;;;;11.70;4.35;;;;;;;9.57;100.00;102991.88;5027844;28;20046;-60
2022/03/19 09:54:21;;;;;;;14.75;4.45;;;;;;;9.71;100.00;102986.56;5026757;28;20032;-61
2022/03/19 09:56:46;;;;;;;8.85;4.75;;;;;;;9.59;100.00;102966.50;5026959;28;20033;-60
2022/03/19 09:59:11;;;;;;;10.00;4.13;;;;;;;9.75;100.00;102985.66;5025791;28;20131;-60
2022/03/19 10:01:38;;;;;;;6.50;3.80;;;;;;;9.53;100.00;102931.56;5027779;28;20026;-60
2022/03/19 10:04:05;;;;;;;5.90;3.90;;;;;;;9.58;100.00;102941.13;5026736;28;20956;-61
2022/03/19 10:09:19;;;;;;;8.23;4.60;;;;;;;9.93;100.00;102967.19;5026662;28;20040;-60
2022/03/19 10:11:48;;;;;;;11.57;4.25;;;;;;;10.02;100.00;102963.63;5026650;28;20028;-60
2022/03/19 10:14:19;;;;;;;7.57;4.35;;;;;;;10.10;100.00;102953.94;5042173;28;20972;-60
2022/03/19 10:16:48;;;;;;;7.32;4.22;;;;;;;10.21;100.00;102955.63;5025551;28;20032;-60
2022/03/19 10:19:13;;;;;;;12.65;4.30;;;;;;;10.27;100.00;102950.31;5026687;28;20036;-60
2022/03/19 10:21:42;;;;;;;7.03;4.00;;;;;;;10.34;100.00;102952.94;5028426;28;20060;-60
2022/03/19 10:24:19;;;;;;;7.50;4.32;;;;;;;10.39;100.00;102940.59;5028514;28;20073;-60
2022/03/19 10:26:47;;;;;;;8.48;4.63;;;;;;;10.45;100.00;102936.16;5026994;28;20152;-60
2022/03/19 10:29:12;;;;;;;8.73;5.28;;;;;;;10.55;100.00;102940.44;5024716;28;20024;-60
2022/03/19 10:31:46;;;;;;;7.93;4.97;;;;;;;10.58;100.00;102937.78;5025390;28;20039;-61
2022/03/19 10:34:13;;;;;;;5.25;3.90;;;;;;;10.59;100.00;102928.16;5026058;28;20036;-61
2022/03/19 10:36:48;;;;;;;16.73;5.22;;;;;;;10.68;100.00;102931.56;5025761;28;20025;-60
2022/03/19 10:39:22;;;;;;;7.97;4.68;;;;;;;10.71;100.00;102925.41;5026986;28;20060;-60
2022/03/19 10:41:48;;;;;;;6.35;3.88;;;;;;;10.73;100.00;102919.25;5025153;28;20036;-60
2022/03/19 10:44:22;;;;;;;11.05;4.43;;;;;;;10.85;100.00;102912.97;5025903;28;20062;-60
2022/03/19 10:46:52;;;;;;;8.13;4.07;;;;;;;10.96;100.00;102924.25;5026042;28;20028;-60
2022/03/19 10:49:19;;;;;;;13.00;4.97;;;;;;;10.92;96.16;102909.38;5025873;28;20021;-61
2022/03/19 10:51:53;;;;;;;7.78;4.25;;;;;;;10.86;98.59;102904.19;5026167;28;20042;-61
2022/03/19 10:54:19;;;;;;;7.20;4.38;;;;;;;11.04;100.00;102906.63;5028056;28;20033;-60
2022/03/19 10:56:46;;;;;;;13.90;4.75;;;;;;;11.19;100.00;102893.28;5027277;28;20056;-60
2022/03/19 10:59:12;;;;;;;12.77;4.18;;;;;;;11.34;98.08;102909.75;5026671;28;20025;-60
2022/03/19 11:01:38;;;;;;;7.40;4.35;;;;;;;11.41;96.30;102887.72;5028357;28;20036;-61
2022/03/19 11:04:07;;;;;;;5.57;3.85;;;;;;;11.34;94.20;102875.53;5027030;28;20028;-60
2022/03/19 11:06:35;;;;;;;6.50;3.45;;;;;;;11.33;96.72;102858.00;5042531;28;20032;-60
2022/03/19 11:09:06;;;;;;;9.77;4.72;;;;;;;11.60;93.67;102886.56;5031015;28;20113;-60
2022/03/19 11:11:50;;;;;;;9.73;4.07;;;;;;;11.68;92.05;102874.19;5032483;28;20032;-60
2022/03/19 11:14:24;;;;;;;7.85;4.38;;;;;;;11.82;86.76;102874.00;5046260;28;20042;-60
2022/03/19 11:17:30;;;;;;;14.63;5.05;;;;;;;11.92;87.27;102870.31;5031303;28;20051;-61
2022/03/19 11:20:02;;;;;;;7.63;4.20;;;;;;;12.05;88.91;102850.78;5031224;28;20959;-61
2022/03/19 11:22:42;;;;;;;6.28;3.97;;;;;;;12.11;86.02;102846.28;5031684;28;20887;-60
2022/03/19 11:25:25;;;;;;;5.30;3.15;;;;;;;12.19;83.83;102838.25;5031838;28;20032;-60
2022/03/19 11:27:55;;;;;;;5.80;3.77;;;;;;;12.34;86.46;102847.63;5030586;28;20913;-60